createdAt,value
2023-11-19T00:00:03.458Z,87.23
2023-11-19T00:10:04.065Z,87.54
2023-11-19T00:20:04.567Z,86.40
2023-11-19T00:30:05.146Z,86.50
2023-11-19T00:40:05.703Z,85.26
2023-11-19T00:50:06.272Z,85.57
2023-11-19T01:00:06.777Z,85.99
2023-11-19T01:10:07.376Z,85.99
2023-11-19T01:20:07.874Z,85.16
2023-11-19T01:30:08.437Z,84.95
2023-11-19T01:40:09.056Z,84.39
2023-11-19T01:50:09.603Z,83.91
2023-11-19T02:00:10.126Z,83.05
2023-11-19T02:10:10.681Z,84.53
2023-11-19T02:20:11.207Z,84.91
2023-11-19T02:30:11.772Z,85.32
2023-11-19T02:40:12.358Z,85.94
2023-11-19T02:50:12.902Z,85.42
2023-11-19T03:00:13.596Z,85.63
2023-11-19T03:10:14.213Z,85.74
2023-11-19T03:20:14.720Z,85.22
2023-11-19T03:30:15.297Z,85.91
2023-11-19T03:40:15.841Z,88.64
2023-11-19T03:50:16.376Z,91.57
2023-11-19T04:00:16.913Z,93.74
2023-11-19T04:10:17.512Z,94.93
2023-11-19T04:20:18.085Z,95.44
2023-11-19T04:30:18.662Z,95.86
2023-11-19T04:40:19.422Z,96.69
2023-11-19T04:50:20.048Z,97.20
2023-11-19T05:00:22.262Z,98.24
2023-11-19T05:10:21.124Z,99.48
2023-11-19T05:20:21.661Z,99.99
2023-11-19T05:30:22.308Z,99.99
2023-11-19T05:40:22.855Z,99.99
2023-11-19T05:50:23.407Z,99.99
2023-11-19T06:00:23.924Z,99.99
2023-11-19T06:10:24.505Z,99.99
2023-11-19T06:20:25.057Z,99.99
2023-11-19T06:30:25.579Z,99.99
2023-11-19T06:40:26.102Z,99.99
2023-11-19T06:50:26.731Z,99.99
2023-11-19T07:00:27.201Z,99.99
2023-11-19T07:10:27.741Z,99.99
2023-11-19T07:20:28.211Z,99.99
2023-11-19T07:30:28.732Z,99.99
2023-11-19T07:40:29.206Z,99.99
2023-11-19T07:50:29.761Z,99.99
2023-11-19T08:00:30.198Z,99.99
2023-11-19T08:10:30.721Z,99.99
2023-11-19T08:20:31.211Z,99.99
2023-11-19T08:30:31.691Z,99.99
2023-11-19T08:40:32.170Z,99.99
2023-11-19T08:50:32.696Z,99.99
2023-11-19T09:00:33.163Z,99.99
2023-11-19T09:10:33.683Z,99.99
2023-11-19T09:20:34.233Z,99.99
2023-11-19T09:30:34.766Z,99.99
2023-11-19T09:40:35.312Z,99.99
2023-11-19T09:50:35.853Z,99.99
2023-11-19T10:00:36.292Z,99.99
2023-11-19T10:10:36.824Z,99.99
2023-11-19T10:20:37.360Z,99.99
2023-11-19T10:30:37.851Z,99.99
2023-11-19T10:40:38.372Z,99.99
2023-11-19T10:50:38.910Z,99.99
2023-11-19T11:00:39.359Z,99.99
2023-11-19T11:10:56.565Z,99.99
2023-11-19T11:20:41.743Z,99.99
2023-11-19T11:30:41.247Z,98.86
2023-11-19T11:40:41.702Z,97.17
2023-11-19T11:50:42.218Z,96.51
2023-11-19T12:00:42.728Z,95.60
2023-11-19T12:10:43.225Z,95.09
2023-11-19T12:20:43.742Z,94.82
2023-11-19T12:30:44.416Z,94.48
2023-11-19T12:40:44.929Z,94.07
2023-11-19T12:50:45.510Z,95.64
2023-11-19T13:00:46.041Z,96.26
2023-11-19T13:10:46.520Z,94.52
2023-11-19T13:20:47.162Z,94.15
2023-11-19T13:30:47.673Z,93.13
2023-11-19T13:40:48.162Z,93.85
2023-11-19T13:50:48.725Z,93.95
2023-11-19T14:00:49.276Z,93.95
2023-11-19T14:10:49.753Z,94.15
2023-11-19T14:20:50.304Z,94.15
2023-11-19T14:30:50.850Z,94.06
2023-11-19T14:40:51.359Z,93.95
2023-11-19T14:50:51.920Z,93.99
2023-11-19T15:00:52.585Z,93.99
2023-11-19T15:10:53.106Z,94.20
2023-11-19T15:20:53.573Z,93.99
2023-11-19T15:30:54.094Z,93.89
2023-11-19T15:40:54.562Z,93.89
2023-11-19T15:50:55.139Z,93.69
2023-11-19T16:00:55.661Z,93.79
2023-11-19T16:10:56.273Z,93.59
2023-11-19T16:20:56.833Z,93.69
2023-11-19T16:30:57.380Z,95.43
2023-11-19T16:40:57.914Z,96.29
2023-11-19T17:00:59.022Z,95.47
2023-11-19T17:10:59.540Z,94.85
2023-11-19T17:21:00.065Z,94.75
2023-11-19T17:31:00.978Z,96.08
2023-11-19T17:41:01.501Z,96.91
2023-11-19T17:51:04.356Z,97.41
2023-11-19T18:01:02.628Z,97.15
2023-11-19T18:11:03.350Z,97.66
2023-11-19T18:21:03.901Z,98.28
2023-11-19T18:31:04.517Z,98.02
2023-11-19T18:41:05.091Z,98.22
2023-11-19T18:51:05.689Z,98.22
2023-11-19T19:01:06.194Z,98.63
2023-11-19T19:11:06.833Z,98.53
2023-11-19T19:21:07.443Z,98.53
2023-11-19T19:31:08.109Z,98.53
2023-11-19T19:41:08.899Z,98.22
2023-11-19T19:51:09.482Z,98.12
2023-11-19T20:01:10.446Z,98.53
2023-11-19T20:11:10.766Z,98.94
2023-11-19T20:21:11.040Z,99.04
2023-11-19T20:31:11.610Z,99.25
2023-11-19T20:41:12.848Z,99.35
2023-11-19T20:51:12.573Z,99.35
2023-11-19T21:01:13.237Z,99.25
2023-11-19T21:11:13.787Z,99.20
2023-11-19T21:21:14.325Z,99.10
2023-11-19T21:31:14.981Z,98.90
2023-11-19T21:41:15.658Z,98.69
2023-11-19T21:51:16.246Z,98.18
2023-11-19T22:01:17.185Z,98.12
2023-11-19T22:11:17.306Z,98.43
2023-11-19T22:21:17.827Z,98.94
2023-11-19T22:31:18.529Z,99.25
2023-11-19T22:41:19.086Z,99.76
2023-11-19T22:51:19.653Z,99.96
2023-11-19T23:01:20.238Z,99.99
2023-11-19T23:11:20.793Z,99.96
2023-11-19T23:21:21.321Z,99.86
2023-11-19T23:31:21.943Z,99.99
2023-11-19T23:41:22.460Z,99.99
2023-11-19T23:51:23.046Z,99.99
